sensor_id;sensor_type;location;lat;lon;timestamp;pressure;altitude;pressure_sealevel;temperature;humidity
19672;BME280;9983;51.114;13.788;2022-10-03T00:03:10;99665.44;;;13.39;100.00
19672;BME280;9983;51.114;13.788;2022-10-03T00:14:46;99679.22;;;13.44;100.00
19672;BME280;9983;51.114;13.788;2022-10-03T00:19:38;99690.44;;;13.33;100.00
19672;BME280;9983;51.114;13.788;2022-10-03T00:30:12;99707.34;;;13.27;100.00
19672;BME280;9983;51.114;13.788;2022-10-03T00:36:01;99712.06;;;13.54;100.00
19672;BME280;9983;51.114;13.788;2022-10-03T00:41:06;99710.78;;;13.50;100.00
19672;BME280;9983;51.114;13.788;2022-10-03T00:52:18;99722.56;;;13.49;100.00
19672;BME280;9983;51.114;13.788;2022-10-03T01:08:41;99726.31;;;13.19;100.00
19672;BME280;9983;51.114;13.788;2022-10-03T01:24:50;99717.19;;;13.64;100.00
19672;BME280;9983;51.114;13.788;2022-10-03T01:29:57;99713.75;;;13.55;100.00
19672;BME280;9983;51.114;13.788;2022-10-03T01:35:58;99712.47;;;13.87;100.00
19672;BME280;9983;51.114;13.788;2022-10-03T01:41:07;99715.09;;;13.66;100.00
19672;BME280;9983;51.114;13.788;2022-10-03T01:46:21;99708.50;;;13.68;100.00
19672;BME280;9983;51.114;13.788;2022-10-03T01:51:50;99719.03;;;13.63;100.00
19672;BME280;9983;51.114;13.788;2022-10-03T01:57:09;99722.25;;;13.74;100.00
19672;BME280;9983;51.114;13.788;2022-10-03T02:02:46;99717.47;;;13.54;100.00
19672;BME280;9983;51.114;13.788;2022-10-03T02:13:45;99723.31;;;13.94;100.00
19672;BME280;9983;51.114;13.788;2022-10-03T02:24:40;99743.09;;;13.50;100.00
19672;BME280;9983;51.114;13.788;2022-10-03T02:40:31;99745.88;;;13.72;100.00
19672;BME280;9983;51.114;13.788;2022-10-03T02:45:59;99750.31;;;13.64;100.00
19672;BME280;9983;51.114;13.788;2022-10-03T02:51:34;99749.19;;;13.74;100.00
19672;BME280;9983;51.114;13.788;2022-10-03T02:57:02;99750.91;;;13.45;100.00
19672;BME280;9983;51.114;13.788;2022-10-03T03:23:55;99775.00;;;13.83;100.00
19672;BME280;9983;51.114;13.788;2022-10-03T03:29:16;99781.16;;;13.77;100.00
19672;BME280;9983;51.114;13.788;2022-10-03T03:34:39;99787.03;;;13.51;100.00
19672;BME280;9983;51.114;13.788;2022-10-03T03:40:22;99779.31;;;13.62;100.00
19672;BME280;9983;51.114;13.788;2022-10-03T03:45:38;99787.88;;;13.22;100.00
19672;BME280;9983;51.114;13.788;2022-10-03T03:56:45;99783.94;;;13.39;100.00
19672;BME280;9983;51.114;13.788;2022-10-03T04:02:04;99791.78;;;13.63;100.00
19672;BME280;9983;51.114;13.788;2022-10-03T04:34:08;99812.38;;;13.86;100.00
19672;BME280;9983;51.114;13.788;2022-10-03T04:39:33;99810.63;;;13.78;100.00
19672;BME280;9983;51.114;13.788;2022-10-03T04:45:06;99813.88;;;13.44;100.00
19672;BME280;9983;51.114;13.788;2022-10-03T04:50:23;99812.75;;;13.53;100.00
19672;BME280;9983;51.114;13.788;2022-10-03T04:55:44;99818.31;;;13.37;100.00
19672;BME280;9983;51.114;13.788;2022-10-03T05:00:56;99813.50;;;13.77;100.00
19672;BME280;9983;51.114;13.788;2022-10-03T05:17:14;99819.81;;;13.84;100.00
19672;BME280;9983;51.114;13.788;2022-10-03T05:33:27;99841.41;;;13.32;100.00
19672;BME280;9983;51.114;13.788;2022-10-03T05:44:02;99848.97;;;13.65;100.00
19672;BME280;9983;51.114;13.788;2022-10-03T05:54:28;99856.03;;;13.66;100.00
19672;BME280;9983;51.114;13.788;2022-10-03T06:15:43;99874.72;;;13.68;100.00
19672;BME280;9983;51.114;13.788;2022-10-03T06:21:53;99882.63;;;13.70;100.00
19672;BME280;9983;51.114;13.788;2022-10-03T06:27:06;99892.94;;;13.95;100.00
19672;BME280;9983;51.114;13.788;2022-10-03T06:37:45;99909.41;;;13.86;100.00
19672;BME280;9983;51.114;13.788;2022-10-03T06:43:10;99912.19;;;13.92;100.00
19672;BME280;9983;51.114;13.788;2022-10-03T06:48:42;99913.09;;;14.43;100.00
19672;BME280;9983;51.114;13.788;2022-10-03T07:31:05;99932.91;;;14.36;100.00
19672;BME280;9983;51.114;13.788;2022-10-03T07:36:21;99932.16;;;14.42;100.00
19672;BME280;9983;51.114;13.788;2022-10-03T07:41:59;99946.94;;;14.31;100.00
19672;BME280;9983;51.114;13.788;2022-10-03T08:14:30;99969.66;;;14.22;100.00
19672;BME280;9983;51.114;13.788;2022-10-03T08:19:57;99967.75;;;14.67;100.00
19672;BME280;9983;51.114;13.788;2022-10-03T08:25:26;99975.09;;;14.73;100.00
19672;BME280;9983;51.114;13.788;2022-10-03T08:47:20;99983.78;;;14.54;100.00
19672;BME280;9983;51.114;13.788;2022-10-03T09:04:01;99981.53;;;14.28;100.00
19672;BME280;9983;51.114;13.788;2022-10-03T09:09:17;99984.31;;;15.14;95.86
19672;BME280;9983;51.114;13.788;2022-10-03T09:14:33;99985.56;;;15.18;94.80
19672;BME280;9983;51.114;13.788;2022-10-03T09:20:04;99990.84;;;15.27;93.12
19672;BME280;9983;51.114;13.788;2022-10-03T09:25:21;99980.53;;;14.94;96.33
19672;BME280;9983;51.114;13.788;2022-10-03T09:30:41;99983.34;;;14.86;94.34
19672;BME280;9983;51.114;13.788;2022-10-03T09:35:57;99990.56;;;15.00;94.67
19672;BME280;9983;51.114;13.788;2022-10-03T09:58:00;99975.69;;;15.47;84.56
19672;BME280;9983;51.114;13.788;2022-10-03T10:08:37;99994.75;;;15.60;82.23
19672;BME280;9983;51.114;13.788;2022-10-03T10:30:11;99986.78;;;16.42;76.77
19672;BME280;9983;51.114;13.788;2022-10-03T10:57:04;99987.06;;;17.08;68.80
19672;BME280;9983;51.114;13.788;2022-10-03T11:45:38;99997.91;;;17.01;70.48
19672;BME280;9983;51.114;13.788;2022-10-03T11:50:47;99998.81;;;16.33;72.36
19672;BME280;9983;51.114;13.788;2022-10-03T12:06:57;99995.31;;;16.74;68.21
19672;BME280;9983;51.114;13.788;2022-10-03T12:17:32;99997.19;;;16.80;72.22
19672;BME280;9983;51.114;13.788;2022-10-03T12:22:44;99991.81;;;16.45;72.01
19672;BME280;9983;51.114;13.788;2022-10-03T12:28:16;100011.13;;;16.77;72.81
19672;BME280;9983;51.114;13.788;2022-10-03T12:33:36;99993.88;;;17.65;69.17
19672;BME280;9983;51.114;13.788;2022-10-03T12:38:55;99999.69;;;17.49;66.74
19672;BME280;9983;51.114;13.788;2022-10-03T12:49:16;100004.63;;;17.25;67.99
19672;BME280;9983;51.114;13.788;2022-10-03T12:54:26;100003.31;;;17.01;68.92
19672;BME280;9983;51.114;13.788;2022-10-03T13:05:29;100002.91;;;16.98;69.61
19672;BME280;9983;51.114;13.788;2022-10-03T13:10:45;99999.56;;;16.96;70.71
19672;BME280;9983;51.114;13.788;2022-10-03T13:16:14;99998.38;;;17.25;70.18
19672;BME280;9983;51.114;13.788;2022-10-03T13:21:32;99993.31;;;17.02;69.81
19672;BME280;9983;51.114;13.788;2022-10-03T13:27:04;99982.09;;;17.12;69.18
19672;BME280;9983;51.114;13.788;2022-10-03T13:32:36;99992.09;;;17.24;70.49
19672;BME280;9983;51.114;13.788;2022-10-03T13:38:03;99977.06;;;17.08;70.02
19672;BME280;9983;51.114;13.788;2022-10-03T13:43:11;99986.22;;;17.01;70.87
19672;BME280;9983;51.114;13.788;2022-10-03T13:48:17;99990.50;;;16.35;73.86
19672;BME280;9983;51.114;13.788;2022-10-03T13:53:55;99974.91;;;16.78;73.82
19672;BME280;9983;51.114;13.788;2022-10-03T14:10:20;100015.28;;;16.04;89.24
19672;BME280;9983;51.114;13.788;2022-10-03T14:15:32;100007.91;;;15.70;93.52
19672;BME280;9983;51.114;13.788;2022-10-03T14:31:21;99995.06;;;16.34;89.37
19672;BME280;9983;51.114;13.788;2022-10-03T14:36:41;99986.81;;;16.49;87.15
19672;BME280;9983;51.114;13.788;2022-10-03T14:41:48;99994.50;;;16.80;83.20
19672;BME280;9983;51.114;13.788;2022-10-03T14:47:02;99978.88;;;16.82;81.44
19672;BME280;9983;51.114;13.788;2022-10-03T14:57:31;99976.53;;;17.66;75.03
19672;BME280;9983;51.114;13.788;2022-10-03T15:02:35;99986.38;;;17.73;75.69
19672;BME280;9983;51.114;13.788;2022-10-03T15:07:38;99985.19;;;16.54;78.97
19672;BME280;9983;51.114;13.788;2022-10-03T15:12:43;99995.31;;;16.74;78.11
19672;BME280;9983;51.114;13.788;2022-10-03T15:17:50;99992.34;;;16.68;77.84
19672;BME280;9983;51.114;13.788;2022-10-03T15:22:55;99985.59;;;16.51;77.69
19672;BME280;9983;51.114;13.788;2022-10-03T15:27:58;99990.22;;;16.23;77.45
19672;BME280;9983;51.114;13.788;2022-10-03T15:33:14;99991.34;;;16.76;75.63
19672;BME280;9983;51.114;13.788;2022-10-03T15:38:24;99973.28;;;16.90;75.10
19672;BME280;9983;51.114;13.788;2022-10-03T15:43:35;99987.22;;;16.80;75.86
19672;BME280;9983;51.114;13.788;2022-10-03T15:48:41;99981.13;;;16.72;75.42
19672;BME280;9983;51.114;13.788;2022-10-03T15:53:42;99978.06;;;16.40;77.14
19672;BME280;9983;51.114;13.788;2022-10-03T15:58:49;99969.50;;;16.78;75.65
19672;BME280;9983;51.114;13.788;2022-10-03T16:04:25;99966.97;;;16.69;76.20
19672;BME280;9983;51.114;13.788;2022-10-03T16:10:00;99971.94;;;16.66;76.43
19672;BME280;9983;51.114;13.788;2022-10-03T16:15:20;99975.09;;;16.35;77.74
19672;BME280;9983;51.114;13.788;2022-10-03T16:20:28;99976.94;;;16.62;77.64
19672;BME280;9983;51.114;13.788;2022-10-03T16:25:40;99971.41;;;16.49;78.09
19672;BME280;9983;51.114;13.788;2022-10-03T16:30:55;99973.03;;;16.37;78.58
19672;BME280;9983;51.114;13.788;2022-10-03T16:36:08;99974.06;;;16.02;80.05
19672;BME280;9983;51.114;13.788;2022-10-03T16:46:17;99993.78;;;16.23;81.07
19672;BME280;9983;51.114;13.788;2022-10-03T16:51:35;99991.06;;;16.23;81.52
19672;BME280;9983;51.114;13.788;2022-10-03T16:56:42;100004.06;;;16.07;85.14
19672;BME280;9983;51.114;13.788;2022-10-03T17:01:53;100002.28;;;15.92;86.74
19672;BME280;9983;51.114;13.788;2022-10-03T17:06:58;99998.22;;;15.54;91.82
19672;BME280;9983;51.114;13.788;2022-10-03T17:11:59;99989.81;;;15.49;91.37
19672;BME280;9983;51.114;13.788;2022-10-03T17:17:04;99995.38;;;15.62;92.66
19672;BME280;9983;51.114;13.788;2022-10-03T17:22:19;99992.75;;;15.97;90.49
19672;BME280;9983;51.114;13.788;2022-10-03T17:27:35;99997.28;;;15.89;90.16
19672;BME280;9983;51.114;13.788;2022-10-03T17:32:39;100000.88;;;15.75;91.66
19672;BME280;9983;51.114;13.788;2022-10-03T17:43:42;100005.13;;;15.84;89.07
19672;BME280;9983;51.114;13.788;2022-10-03T17:48:53;100005.03;;;15.71;90.45
19672;BME280;9983;51.114;13.788;2022-10-03T17:54:01;100002.69;;;15.89;88.01
19672;BME280;9983;51.114;13.788;2022-10-03T17:59:11;99994.16;;;15.92;87.86
19672;BME280;9983;51.114;13.788;2022-10-03T18:04:25;100007.59;;;15.79;88.14
19672;BME280;9983;51.114;13.788;2022-10-03T18:09:37;100001.41;;;15.43;89.98
19672;BME280;9983;51.114;13.788;2022-10-03T18:14:49;100004.53;;;15.61;88.58
19672;BME280;9983;51.114;13.788;2022-10-03T18:20:04;100005.03;;;15.71;88.29
19672;BME280;9983;51.114;13.788;2022-10-03T18:25:47;100005.78;;;15.44;90.33
19672;BME280;9983;51.114;13.788;2022-10-03T18:31:29;100005.38;;;15.26;96.32
19672;BME280;9983;51.114;13.788;2022-10-03T18:36:42;100004.03;;;14.79;100.00
19672;BME280;9983;51.114;13.788;2022-10-03T18:41:56;100001.13;;;15.16;100.00
19672;BME280;9983;51.114;13.788;2022-10-03T18:47:20;100000.56;;;15.42;99.39
19672;BME280;9983;51.114;13.788;2022-10-03T18:52:35;100005.63;;;15.09;100.00
19672;BME280;9983;51.114;13.788;2022-10-03T19:02:58;99991.72;;;14.91;100.00
19672;BME280;9983;51.114;13.788;2022-10-03T19:08:17;99996.50;;;15.10;100.00
19672;BME280;9983;51.114;13.788;2022-10-03T19:13:30;99989.69;;;15.36;99.74
19672;BME280;9983;51.114;13.788;2022-10-03T19:23:57;99988.53;;;15.45;99.55
19672;BME280;9983;51.114;13.788;2022-10-03T19:29:07;99994.22;;;15.29;100.00
19672;BME280;9983;51.114;13.788;2022-10-03T19:34:34;99989.31;;;15.39;99.38
19672;BME280;9983;51.114;13.788;2022-10-03T19:39:37;100000.75;;;15.19;100.00
19672;BME280;9983;51.114;13.788;2022-10-03T19:44:38;99998.97;;;15.48;99.24
19672;BME280;9983;51.114;13.788;2022-10-03T19:50:00;100005.31;;;15.55;99.09
19672;BME280;9983;51.114;13.788;2022-10-03T19:55:33;100001.69;;;15.69;97.48
19672;BME280;9983;51.114;13.788;2022-10-03T20:00:38;99991.22;;;15.24;100.00
19672;BME280;9983;51.114;13.788;2022-10-03T20:06:02;99995.03;;;15.50;98.15
19672;BME280;9983;51.114;13.788;2022-10-03T20:16:31;99997.81;;;15.14;100.00
19672;BME280;9983;51.114;13.788;2022-10-03T20:21:35;99989.44;;;15.52;98.11
19672;BME280;9983;51.114;13.788;2022-10-03T20:26:43;99990.72;;;15.35;98.96
19672;BME280;9983;51.114;13.788;2022-10-03T20:31:47;99993.06;;;15.38;98.78
19672;BME280;9983;51.114;13.788;2022-10-03T20:36:53;99986.28;;;15.48;98.09
19672;BME280;9983;51.114;13.788;2022-10-03T20:42:00;99988.03;;;15.35;98.27
19672;BME280;9983;51.114;13.788;2022-10-03T20:52:14;99988.16;;;15.48;97.34
19672;BME280;9983;51.114;13.788;2022-10-03T20:57:17;99984.81;;;15.46;96.57
19672;BME280;9983;51.114;13.788;2022-10-03T21:07:33;100001.44;;;15.64;96.73
19672;BME280;9983;51.114;13.788;2022-10-03T21:12:41;99983.97;;;15.45;96.26
19672;BME280;9983;51.114;13.788;2022-10-03T21:17:44;99983.25;;;15.15;98.96
19672;BME280;9983;51.114;13.788;2022-10-03T21:22:47;99977.09;;;15.43;97.67
19672;BME280;9983;51.114;13.788;2022-10-03T21:27:52;99976.06;;;15.44;96.86
19672;BME280;9983;51.114;13.788;2022-10-03T21:32:59;99989.38;;;15.45;96.73
19672;BME280;9983;51.114;13.788;2022-10-03T21:38:25;99982.25;;;15.59;96.50
19672;BME280;9983;51.114;13.788;2022-10-03T21:44:25;99980.19;;;15.18;98.80
19672;BME280;9983;51.114;13.788;2022-10-03T21:49:28;99976.59;;;15.54;96.35
19672;BME280;9983;51.114;13.788;2022-10-03T21:54:39;99975.94;;;15.73;95.43
19672;BME280;9983;51.114;13.788;2022-10-03T22:00:09;99965.41;;;15.14;98.35
19672;BME280;9983;51.114;13.788;2022-10-03T22:22:06;99978.94;;;15.42;96.98
19672;BME280;9983;51.114;13.788;2022-10-03T22:32:44;99977.59;;;15.74;93.92
19672;BME280;9983;51.114;13.788;2022-10-03T22:37:49;99972.47;;;15.58;94.79
19672;BME280;9983;51.114;13.788;2022-10-03T22:42:53;99966.94;;;15.45;96.09
19672;BME280;9983;51.114;13.788;2022-10-03T22:47:56;99971.69;;;15.43;96.54
19672;BME280;9983;51.114;13.788;2022-10-03T22:52:59;99966.94;;;15.45;95.64
19672;BME280;9983;51.114;13.788;2022-10-03T22:58:01;99960.91;;;15.64;94.45
19672;BME280;9983;51.114;13.788;2022-10-03T23:03:09;99960.25;;;15.62;94.82
19672;BME280;9983;51.114;13.788;2022-10-03T23:13:41;99956.66;;;15.55;94.39
19672;BME280;9983;51.114;13.788;2022-10-03T23:18:56;99959.84;;;15.44;94.62
19672;BME280;9983;51.114;13.788;2022-10-03T23:24:04;99958.34;;;15.56;94.35
19672;BME280;9983;51.114;13.788;2022-10-03T23:29:18;99959.34;;;15.34;96.39
19672;BME280;9983;51.114;13.788;2022-10-03T23:34:45;99965.25;;;15.44;97.84
19672;BME280;9983;51.114;13.788;2022-10-03T23:44:56;99965.50;;;15.70;96.34
19672;BME280;9983;51.114;13.788;2022-10-03T23:49:58;99967.81;;;15.52;96.67
19672;BME280;9983;51.114;13.788;2022-10-03T23:55:03;99955.19;;;15.31;97.46
